Time;durP1;ratioP1;P1;durP2;ratioP2;P2;SDS_P1;SDS_P2;PMS_P1;PMS_P2;Temp;Humidity;BMP_temperature;BMP_pressure;BME280_temperature;BME280_humidity;BME280_pressure;Samples;Min_cycle;Max_cycle;Signal;HPM_P1;HPM_P2
2023/09/16 00:01:52;;;;;;;19.57;17.77;;;15.10;99.90;;;;;;5026286;28;20680;-81
2023/09/16 00:04:22;;;;;;;19.80;18.10;;;15.00;99.90;;;;;;5030228;28;20579;-81
2023/09/16 00:06:50;;;;;;;19.13;17.53;;;15.00;99.90;;;;;;5029225;28;20349;-80
2023/09/16 00:09:17;;;;;;;19.87;18.17;;;15.00;99.90;;;;;;5025813;28;20225;-81
2023/09/16 00:11:44;;;;;;;18.97;17.37;;;14.90;99.90;;;;;;5029532;28;20208;-82
2023/09/16 00:14:11;;;;;;;19.37;17.57;;;14.90;99.90;;;;;;5024842;28;20205;-80
2023/09/16 00:16:38;;;;;;;19.53;17.63;;;14.90;99.90;;;;;;5026284;28;20196;-81
2023/09/16 00:19:05;;;;;;;20.43;18.63;;;14.90;99.90;;;;;;5028818;28;20291;-81
2023/09/16 00:21:34;;;;;;;21.17;19.27;;;14.90;99.90;;;;;;5026119;28;20212;-81
2023/09/16 00:24:01;;;;;;;19.73;18.03;;;14.90;99.90;;;;;;5015997;28;20205;-81
2023/09/16 00:26:28;;;;;;;19.90;18.00;;;14.90;99.90;;;;;;5032999;28;20197;-81
2023/09/16 00:28:55;;;;;;;19.60;17.90;;;14.80;99.90;;;;;;5028085;28;20217;-81
2023/09/16 00:31:22;;;;;;;20.33;18.53;;;14.80;99.90;;;;;;5032126;28;20251;-81
2023/09/16 00:33:49;;;;;;;20.07;18.37;;;14.90;99.90;;;;;;5027847;28;20673;-80
2023/09/16 00:36:15;;;;;;;19.90;18.10;;;14.90;99.90;;;;;;5025101;28;20258;-81
2023/09/16 00:38:44;;;;;;;18.43;16.83;;;14.80;99.90;;;;;;5023246;28;20220;-81
2023/09/16 00:41:12;;;;;;;19.53;17.80;;;14.80;99.90;;;;;;5027636;28;20192;-81
2023/09/16 00:43:40;;;;;;;18.77;17.17;;;14.80;99.90;;;;;;5025954;28;20198;-81
2023/09/16 00:46:07;;;;;;;20.60;18.73;;;14.80;99.90;;;;;;5025965;28;20260;-81
2023/09/16 00:48:35;;;;;;;19.43;17.63;;;14.70;99.90;;;;;;5028179;28;20461;-81
2023/09/16 00:51:02;;;;;;;20.87;19.07;;;14.70;99.90;;;;;;5024763;28;20193;-81
2023/09/16 00:53:29;;;;;;;20.43;18.43;;;14.70;99.90;;;;;;5028510;28;20199;-80
2023/09/16 00:55:57;;;;;;;19.47;17.57;;;14.70;99.90;;;;;;5029644;28;20659;-81
2023/09/16 00:58:24;;;;;;;19.53;17.73;;;14.70;99.90;;;;;;5025926;28;20214;-81
2023/09/16 01:00:52;;;;;;;20.73;18.83;;;14.70;99.90;;;;;;5026906;28;20224;-81
2023/09/16 01:03:19;;;;;;;19.60;17.80;;;14.70;99.90;;;;;;5029976;28;20229;-81
2023/09/16 01:05:48;;;;;;;20.23;18.43;;;14.70;99.90;;;;;;5023842;28;20191;-81
2023/09/16 01:08:16;;;;;;;19.70;17.80;;;14.70;99.90;;;;;;5025231;28;20216;-81
2023/09/16 01:10:43;;;;;;;20.73;18.93;;;14.70;99.90;;;;;;5023262;28;20216;-81
2023/09/16 01:13:11;;;;;;;19.57;17.87;;;14.70;99.90;;;;;;5030902;28;20192;-82
2023/09/16 01:15:44;;;;;;;19.23;17.53;;;14.70;99.90;;;;;;5027309;28;20194;-81
2023/09/16 01:18:19;;;;;;;18.80;17.20;;;14.80;99.90;;;;;;5017307;28;20221;-81
2023/09/16 01:20:47;;;;;;;18.73;17.13;;;14.90;99.90;;;;;;5032030;28;20211;-82
2023/09/16 01:23:18;;;;;;;20.43;18.63;;;14.90;99.90;;;;;;5028082;28;20228;-81
2023/09/16 01:25:46;;;;;;;18.87;17.17;;;15.00;99.90;;;;;;5026656;28;20212;-80
2023/09/16 01:28:13;;;;;;;21.40;19.40;;;15.00;99.90;;;;;;5026085;28;20231;-81
2023/09/16 01:30:47;;;;;;;21.10;19.00;;;15.00;99.90;;;;;;5028006;28;20212;-81
2023/09/16 01:33:21;;;;;;;21.00;19.20;;;15.00;99.90;;;;;;5025295;28;20201;-81
2023/09/16 01:35:51;;;;;;;19.40;17.70;;;15.00;99.90;;;;;;5006999;28;20290;-80
2023/09/16 01:38:22;;;;;;;19.23;17.63;;;14.90;99.90;;;;;;5010436;28;20216;-81
2023/09/16 01:40:53;;;;;;;19.70;17.97;;;14.90;99.90;;;;;;5037944;28;20279;-81
2023/09/16 01:43:21;;;;;;;19.17;17.47;;;14.90;99.90;;;;;;5028586;28;20250;-80
2023/09/16 01:45:49;;;;;;;19.13;17.53;;;14.80;99.90;;;;;;5027986;28;20201;-81
2023/09/16 01:48:16;;;;;;;18.80;17.23;;;14.80;99.90;;;;;;5026916;28;20705;-81
2023/09/16 01:50:44;;;;;;;19.13;17.53;;;14.80;99.90;;;;;;5026562;28;20206;-81
2023/09/16 01:53:11;;;;;;;21.37;19.37;;;14.70;99.90;;;;;;5025669;28;20224;-81
2023/09/16 01:55:38;;;;;;;19.97;18.30;;;14.70;99.90;;;;;;5020700;28;20206;-80
2023/09/16 01:58:08;;;;;;;19.60;17.90;;;14.70;99.90;;;;;;5027555;28;20217;-81
2023/09/16 02:00:35;;;;;;;20.33;18.63;;;14.70;99.90;;;;;;5015915;28;20209;-80
2023/09/16 02:03:01;;;;;;;20.03;18.33;;;14.60;99.90;;;;;;5029021;28;20233;-80
2023/09/16 02:05:29;;;;;;;19.20;17.43;;;14.60;99.90;;;;;;5025588;28;20253;-81
2023/09/16 02:07:57;;;;;;;20.50;18.77;;;14.60;99.90;;;;;;5037180;28;20292;-81
2023/09/16 02:10:24;;;;;;;19.70;18.00;;;14.70;99.90;;;;;;5024321;28;20209;-81
2023/09/16 02:12:52;;;;;;;21.30;19.40;;;14.70;99.90;;;;;;5026780;28;20188;-81
2023/09/16 02:15:20;;;;;;;20.37;18.57;;;14.70;99.90;;;;;;5027232;28;20680;-82
2023/09/16 02:17:47;;;;;;;19.87;18.03;;;14.70;99.90;;;;;;5024514;28;20227;-82
2023/09/16 02:20:14;;;;;;;19.97;18.07;;;14.70;99.90;;;;;;5028649;28;20212;-81
2023/09/16 02:22:44;;;;;;;21.67;19.57;;;14.70;99.90;;;;;;5026940;28;20708;-82
2023/09/16 02:25:11;;;;;;;20.33;18.53;;;14.70;99.90;;;;;;5025451;28;20738;-80
2023/09/16 02:27:38;;;;;;;20.93;18.93;;;14.70;99.90;;;;;;5026768;28;20188;-82
2023/09/16 02:30:07;;;;;;;20.07;18.17;;;14.70;99.90;;;;;;5025205;28;20267;-82
2023/09/16 02:32:36;;;;;;;21.13;19.23;;;14.70;99.90;;;;;;5045187;28;20205;-80
2023/09/16 02:35:03;;;;;;;20.73;18.83;;;14.70;99.90;;;;;;5024417;28;20233;-81
2023/09/16 02:37:29;;;;;;;20.53;18.70;;;14.70;99.90;;;;;;5030995;28;20213;-78
2023/09/16 02:39:56;;;;;;;21.03;18.93;;;14.70;99.90;;;;;;5009813;28;20561;-82
2023/09/16 02:42:23;;;;;;;20.13;18.43;;;14.70;99.90;;;;;;5028199;28;20217;-83
2023/09/16 02:44:50;;;;;;;19.60;17.73;;;14.60;99.90;;;;;;5025016;28;20248;-81
2023/09/16 02:47:17;;;;;;;19.33;17.60;;;14.60;99.90;;;;;;5022265;28;20208;-86
2023/09/16 02:49:45;;;;;;;19.10;17.47;;;14.50;99.90;;;;;;5016375;28;20561;-78
2023/09/16 02:52:14;;;;;;;18.17;16.67;;;14.50;99.90;;;;;;5026179;28;20211;-78
2023/09/16 02:54:41;;;;;;;19.13;17.53;;;14.50;99.90;;;;;;5017323;28;20604;-79
2023/09/16 02:57:08;;;;;;;17.17;15.87;;;14.60;99.90;;;;;;5026457;28;20209;-78
2023/09/16 02:59:34;;;;;;;16.93;15.53;;;14.60;99.90;;;;;;5024946;28;20719;-78
2023/09/16 03:02:01;;;;;;;18.17;16.67;;;14.60;99.90;;;;;;5019492;28;20204;-78
2023/09/16 03:04:28;;;;;;;19.27;17.70;;;14.60;99.90;;;;;;5027994;28;20246;-78
2023/09/16 03:06:56;;;;;;;19.40;17.70;;;14.60;99.90;;;;;;5027149;28;20587;-78
2023/09/16 03:09:24;;;;;;;19.43;17.83;;;14.60;99.90;;;;;;5034997;28;20231;-78
2023/09/16 03:11:50;;;;;;;18.73;17.33;;;14.50;99.90;;;;;;5030732;28;20708;-78
2023/09/16 03:14:18;;;;;;;19.50;18.00;;;14.40;99.90;;;;;;5029451;28;20236;-78
2023/09/16 03:16:45;;;;;;;18.20;16.80;;;14.40;99.90;;;;;;5030285;28;20203;-78
2023/09/16 03:19:13;;;;;;;19.60;18.00;;;14.40;99.90;;;;;;5029660;28;20208;-79
2023/09/16 03:21:40;;;;;;;18.80;17.20;;;14.40;99.90;;;;;;5012915;28;20209;-78
2023/09/16 03:24:09;;;;;;;18.13;16.73;;;14.30;99.90;;;;;;5030987;28;20662;-78
2023/09/16 03:26:36;;;;;;;18.80;17.30;;;14.30;99.90;;;;;;5035402;28;20204;-78
2023/09/16 03:29:03;;;;;;;18.20;16.80;;;14.30;99.90;;;;;;5028688;28;20297;-83
2023/09/16 03:31:31;;;;;;;19.10;17.50;;;14.30;99.90;;;;;;5025793;28;20204;-78
2023/09/16 03:34:11;;;;;;;20.60;18.70;;;14.30;99.90;;;;;;5025444;28;20292;-77
2023/09/16 03:36:38;;;;;;;19.53;17.93;;;14.20;99.90;;;;;;5009912;28;20204;-81
2023/09/16 03:39:06;;;;;;;20.10;18.50;;;14.20;99.90;;;;;;5010651;28;20307;-83
2023/09/16 03:41:35;;;;;;;20.40;18.70;;;14.20;99.90;;;;;;5020046;28;20291;-81
2023/09/16 03:44:03;;;;;;;20.77;19.03;;;14.10;99.90;;;;;;5013915;28;20216;-81
2023/09/16 03:46:31;;;;;;;19.90;18.27;;;14.10;99.90;;;;;;5018728;28;20231;-81
2023/09/16 03:49:00;;;;;;;20.60;18.80;;;14.10;99.90;;;;;;5015044;28;20447;-82
2023/09/16 03:51:27;;;;;;;19.13;17.53;;;14.10;99.90;;;;;;5015463;28;20203;-82
2023/09/16 03:53:55;;;;;;;19.40;17.80;;;14.10;99.90;;;;;;5014175;28;20216;-83
2023/09/16 03:56:22;;;;;;;19.87;18.20;;;14.00;99.90;;;;;;5017858;28;20560;-82
2023/09/16 03:58:50;;;;;;;18.63;17.13;;;14.00;99.90;;;;;;5023862;28;20231;-83
2023/09/16 04:01:21;;;;;;;20.40;18.80;;;14.00;99.90;;;;;;5011931;28;20207;-83
2023/09/16 04:03:47;;;;;;;21.80;19.90;;;14.00;99.90;;;;;;5016253;28;20231;-83
2023/09/16 04:06:14;;;;;;;21.07;19.27;;;13.90;99.90;;;;;;5015183;28;20279;-82
2023/09/16 04:08:41;;;;;;;20.83;19.03;;;13.90;99.90;;;;;;5014792;28;20211;-83
2023/09/16 04:11:08;;;;;;;21.40;19.67;;;13.80;99.90;;;;;;5014945;28;20196;-82
2023/09/16 04:13:37;;;;;;;20.13;18.53;;;13.80;99.90;;;;;;5017265;28;20722;-80
2023/09/16 04:16:05;;;;;;;18.43;16.83;;;13.80;99.90;;;;;;5015153;28;20625;-82
2023/09/16 04:18:34;;;;;;;20.23;18.53;;;13.80;99.90;;;;;;5014138;28;20263;-81
2023/09/16 04:21:02;;;;;;;19.63;17.93;;;13.80;99.90;;;;;;5018005;28;20210;-81
2023/09/16 04:23:29;;;;;;;19.53;18.03;;;13.80;99.90;;;;;;5031127;28;20213;-81
2023/09/16 04:26:00;;;;;;;19.73;18.13;;;13.80;99.90;;;;;;5029048;28;20192;-83
2023/09/16 04:28:28;;;;;;;19.57;17.97;;;13.80;99.90;;;;;;5027178;28;20285;-82
2023/09/16 04:30:56;;;;;;;19.63;18.03;;;13.70;99.90;;;;;;5027055;28;20206;-81
2023/09/16 04:33:26;;;;;;;18.97;17.47;;;13.60;99.90;;;;;;5025970;28;20219;-81
2023/09/16 04:35:53;;;;;;;18.87;17.27;;;13.60;99.90;;;;;;5028936;28;20201;-80
2023/09/16 04:38:23;;;;;;;19.37;17.77;;;13.60;99.90;;;;;;5029258;28;20274;-81
2023/09/16 04:40:52;;;;;;;19.13;17.63;;;13.60;99.90;;;;;;5017779;28;20197;-83
2023/09/16 04:43:20;;;;;;;20.47;18.67;;;13.50;99.90;;;;;;5028895;28;20225;-82
2023/09/16 04:45:49;;;;;;;19.50;17.87;;;13.50;99.90;;;;;;5028222;28;20195;-82
2023/09/16 04:48:22;;;;;;;20.10;18.47;;;13.40;99.90;;;;;;5026413;28;20755;-80
2023/09/16 04:50:51;;;;;;;18.97;17.43;;;13.50;99.90;;;;;;5019392;28;20663;-80
2023/09/16 04:53:18;;;;;;;20.90;19.10;;;13.40;99.90;;;;;;5010974;28;20196;-79
2023/09/16 04:55:45;;;;;;;21.23;19.43;;;13.40;99.90;;;;;;5016840;28;20234;-83
2023/09/16 04:58:12;;;;;;;20.33;18.73;;;13.40;99.90;;;;;;5024929;28;20256;-80
2023/09/16 05:00:41;;;;;;;19.87;18.23;;;13.40;99.90;;;;;;5027461;28;20195;-80
2023/09/16 05:03:08;;;;;;;19.87;18.20;;;13.40;99.90;;;;;;5019274;28;20211;-79
2023/09/16 05:05:36;;;;;;;19.07;17.57;;;13.40;99.90;;;;;;5022567;28;20201;-80
2023/09/16 05:08:06;;;;;;;20.80;19.10;;;13.40;99.90;;;;;;5014809;28;20218;-79
2023/09/16 05:10:33;;;;;;;20.13;18.43;;;13.40;99.90;;;;;;5021766;28;20207;-82
2023/09/16 05:13:00;;;;;;;20.23;18.63;;;13.40;99.90;;;;;;5020007;28;20247;-78
2023/09/16 05:15:28;;;;;;;22.20;20.30;;;13.40;99.90;;;;;;5025490;28;20203;-78
2023/09/16 05:17:55;;;;;;;22.00;20.20;;;13.40;99.90;;;;;;5029850;28;20199;-78
2023/09/16 05:20:22;;;;;;;22.07;20.27;;;13.40;99.90;;;;;;5027852;28;20691;-78
2023/09/16 05:22:49;;;;;;;23.17;21.20;;;13.40;99.90;;;;;;5026220;28;20195;-78
2023/09/16 05:25:19;;;;;;;22.63;20.73;;;13.40;99.90;;;;;;5028181;28;20196;-78
2023/09/16 05:27:47;;;;;;;22.13;20.23;;;13.40;99.90;;;;;;5031951;28;20205;-78
2023/09/16 05:30:15;;;;;;;21.80;20.00;;;13.40;99.90;;;;;;5030304;28;20223;-78
2023/09/16 05:32:43;;;;;;;20.07;18.47;;;13.50;99.90;;;;;;5030863;28;20651;-78
2023/09/16 05:35:10;;;;;;;21.43;19.63;;;13.50;99.90;;;;;;5011707;28;20200;-78
2023/09/16 05:37:37;;;;;;;20.70;19.00;;;13.50;99.90;;;;;;5021132;28;20619;-78
2023/09/16 05:40:05;;;;;;;22.00;20.10;;;13.50;99.90;;;;;;5003291;28;20212;-78
2023/09/16 05:42:33;;;;;;;20.03;18.43;;;13.60;99.90;;;;;;5004514;28;20293;-78
2023/09/16 05:45:00;;;;;;;19.60;18.10;;;13.70;99.90;;;;;;5039410;28;20224;-77
2023/09/16 05:47:29;;;;;;;19.47;17.97;;;13.80;99.90;;;;;;5024882;28;20199;-78
2023/09/16 05:49:56;;;;;;;20.67;18.97;;;13.80;99.90;;;;;;5027214;28;20207;-78
2023/09/16 05:52:23;;;;;;;20.47;18.83;;;14.00;99.90;;;;;;5025750;28;20198;-78
2023/09/16 05:54:49;;;;;;;20.77;19.00;;;14.00;99.90;;;;;;5031324;28;20197;-78
2023/09/16 05:57:16;;;;;;;20.23;18.53;;;14.10;99.90;;;;;;5030028;28;20200;-78
2023/09/16 05:59:45;;;;;;;20.73;19.03;;;14.20;99.90;;;;;;5027968;28;20314;-78
2023/09/16 06:02:12;;;;;;;19.43;17.83;;;14.40;99.90;;;;;;5026149;28;20223;-78
2023/09/16 06:04:39;;;;;;;18.60;17.20;;;14.50;99.90;;;;;;5026992;28;20278;-78
2023/09/16 06:07:05;;;;;;;19.43;17.87;;;14.60;99.90;;;;;;5027172;28;20205;-78
2023/09/16 06:09:33;;;;;;;19.70;18.13;;;14.70;99.90;;;;;;5025224;28;20299;-77
2023/09/16 06:12:01;;;;;;;19.83;18.23;;;14.80;99.90;;;;;;5028926;28;20211;-78
2023/09/16 06:14:28;;;;;;;18.57;17.17;;;14.90;99.90;;;;;;5028327;28;20521;-78
2023/09/16 06:16:57;;;;;;;20.10;18.47;;;15.00;99.90;;;;;;5031201;28;20623;-78
2023/09/16 06:19:26;;;;;;;19.93;18.27;;;15.10;99.90;;;;;;5028737;28;20290;-83
2023/09/16 06:21:53;;;;;;;20.27;18.57;;;15.20;99.90;;;;;;5024333;28;20198;-78
2023/09/16 06:24:20;;;;;;;19.00;17.50;;;15.30;99.90;;;;;;5031997;28;20219;-79
2023/09/16 06:26:47;;;;;;;20.00;18.47;;;15.40;99.90;;;;;;5025653;28;20208;-79
2023/09/16 06:29:14;;;;;;;20.13;18.53;;;15.40;99.90;;;;;;5025719;28;20211;-79
2023/09/16 06:31:41;;;;;;;19.17;17.70;;;15.50;99.90;;;;;;5023346;28;20234;-79
2023/09/16 06:34:10;;;;;;;18.27;16.87;;;15.50;99.90;;;;;;5030839;28;20190;-79
2023/09/16 06:36:38;;;;;;;19.10;17.60;;;15.60;99.90;;;;;;5027091;28;20252;-79
2023/09/16 06:39:07;;;;;;;18.87;17.37;;;15.60;99.90;;;;;;5030491;28;20207;-78
2023/09/16 06:41:34;;;;;;;17.67;16.37;;;15.70;99.90;;;;;;5022354;28;20200;-78
2023/09/16 06:44:11;;;;;;;17.90;16.50;;;15.80;99.90;;;;;;5015755;28;20257;-78
2023/09/16 06:46:40;;;;;;;18.53;17.03;;;15.90;99.90;;;;;;5027974;28;20260;-78
2023/09/16 06:49:07;;;;;;;18.67;17.27;;;16.00;99.90;;;;;;5024904;28;20306;-79
2023/09/16 06:51:35;;;;;;;11.17;10.10;;;16.10;99.90;;;;;;5024840;28;20201;-78
2023/09/16 06:54:02;;;;;;;11.00;9.90;;;16.20;99.90;;;;;;5008599;28;20654;-78
2023/09/16 06:56:29;;;;;;;11.30;9.73;;;16.30;99.90;;;;;;5027208;28;20735;-78
2023/09/16 06:58:56;;;;;;;12.00;10.83;;;16.40;99.90;;;;;;5025172;28;20323;-79
2023/09/16 07:01:23;;;;;;;10.90;9.80;;;16.50;99.90;;;;;;5027776;28;20699;-79
2023/09/16 07:03:50;;;;;;;12.00;10.80;;;16.60;99.90;;;;;;5017456;28;20660;-83
2023/09/16 07:06:17;;;;;;;13.30;12.00;;;16.80;99.90;;;;;;5025200;28;20197;-81
2023/09/16 07:08:45;;;;;;;13.80;12.50;;;17.00;99.90;;;;;;5022822;28;20732;-82
2023/09/16 07:11:13;;;;;;;15.07;13.65;;;17.30;99.90;;;;;;5027324;28;20425;-82
2023/09/16 07:13:40;;;;;;;13.13;11.80;;;17.60;99.90;;;;;;5029175;28;20200;-81
2023/09/16 07:16:07;;;;;;;19.67;18.17;;;18.00;99.90;;;;;;5024934;28;20196;-81
2023/09/16 07:18:35;;;;;;;12.10;10.80;;;18.50;99.90;;;;;;5011094;28;20226;-81
2023/09/16 07:21:01;;;;;;;15.37;13.87;;;19.00;99.90;;;;;;5010317;28;20241;-81
2023/09/16 07:23:28;;;;;;;13.00;11.33;;;19.40;99.90;;;;;;5017054;28;20203;-83
2023/09/16 07:25:57;;;;;;;13.73;12.33;;;19.90;99.90;;;;;;5012051;28;20208;-82
2023/09/16 07:28:24;;;;;;;18.17;16.57;;;20.40;99.90;;;;;;5011098;28;20252;-82
2023/09/16 07:30:51;;;;;;;16.47;14.97;;;20.70;99.90;;;;;;5020117;28;20481;-81
2023/09/16 07:33:18;;;;;;;17.23;15.73;;;20.90;99.90;;;;;;5018035;28;20328;-78
2023/09/16 07:35:44;;;;;;;17.80;16.30;;;21.00;99.90;;;;;;5018090;28;20200;-80
2023/09/16 07:38:11;;;;;;;14.53;13.23;;;21.40;99.90;;;;;;5012136;28;20216;-81
2023/09/16 07:40:38;;;;;;;16.70;15.20;;;21.60;99.90;;;;;;5016569;28;20732;-82
2023/09/16 07:43:08;;;;;;;16.27;14.97;;;21.90;99.90;;;;;;5005861;28;20263;-82
2023/09/16 07:45:35;;;;;;;17.57;16.27;;;22.10;99.90;;;;;;5018537;28;20219;-82
2023/09/16 07:48:02;;;;;;;16.67;15.20;;;22.40;99.90;;;;;;5014061;28;20189;-82
2023/09/16 07:50:29;;;;;;;11.53;10.30;;;22.70;99.90;;;;;;5005962;28;20251;-79
2023/09/16 07:52:55;;;;;;;13.77;12.00;;;22.90;99.90;;;;;;5011003;28;20212;-80
2023/09/16 07:55:22;;;;;;;13.63;12.27;;;23.10;99.90;;;;;;5024035;28;20188;-81
2023/09/16 07:57:49;;;;;;;13.70;12.07;;;23.30;99.90;;;;;;5015375;28;20259;-80
2023/09/16 08:00:17;;;;;;;16.00;14.50;;;23.40;99.90;;;;;;5014835;28;20587;-81
2023/09/16 08:02:44;;;;;;;11.27;9.63;;;23.50;99.90;;;;;;5015686;28;20264;-81
2023/09/16 08:05:11;;;;;;;11.93;10.57;;;23.60;99.90;;;;;;5017831;28;20562;-79
2023/09/16 08:07:38;;;;;;;9.70;8.77;;;23.60;99.90;;;;;;5015865;28;20251;-80
2023/09/16 08:10:05;;;;;;;9.37;8.43;;;23.90;99.90;;;;;;5017275;28;20220;-80
2023/09/16 08:12:32;;;;;;;16.60;15.30;;;24.20;99.90;;;;;;5018444;28;20192;-80
2023/09/16 08:15:01;;;;;;;10.17;9.17;;;24.20;99.90;;;;;;5025881;28;20193;-81
2023/09/16 08:17:29;;;;;;;14.03;12.73;;;24.30;99.90;;;;;;5018499;28;20255;-80
2023/09/16 08:19:56;;;;;;;12.60;11.37;;;24.40;99.90;;;;;;5014682;28;20233;-83
2023/09/16 08:22:23;;;;;;;14.37;13.27;;;24.40;99.90;;;;;;5028612;28;20220;-82
2023/09/16 08:24:50;;;;;;;14.80;13.57;;;24.50;99.90;;;;;;5014371;28;20227;-81
2023/09/16 08:27:19;;;;;;;13.90;12.80;;;24.60;99.90;;;;;;5020270;28;20595;-80
2023/09/16 08:29:46;;;;;;;14.70;13.57;;;24.60;99.90;;;;;;5013878;28;20703;-80
2023/09/16 08:32:13;;;;;;;15.33;14.13;;;24.80;99.90;;;;;;5018738;28;20247;-80
2023/09/16 08:34:41;;;;;;;9.98;9.02;;;25.10;99.90;;;;;;5013059;28;20443;-81
2023/09/16 08:37:08;;;;;;;14.53;13.33;;;25.10;99.90;;;;;;5016334;28;20208;-79
2023/09/16 08:39:35;;;;;;;14.83;13.43;;;25.40;99.90;;;;;;5038899;28;20574;-81
2023/09/16 08:42:07;;;;;;;14.20;13.03;;;25.50;99.90;;;;;;5016583;28;20207;-79
2023/09/16 08:44:38;;;;;;;13.77;12.68;;;25.40;99.90;;;;;;5018009;28;20458;-82
2023/09/16 08:47:10;;;;;;;13.63;12.63;;;25.60;99.90;;;;;;5006470;28;20672;-82
2023/09/16 08:49:44;;;;;;;13.10;11.90;;;25.90;99.90;;;;;;5007049;28;20216;-82
2023/09/16 08:52:13;;;;;;;12.40;11.40;;;26.00;99.90;;;;;;5007995;28;20579;-82
2023/09/16 08:54:42;;;;;;;13.23;12.10;;;26.10;99.90;;;;;;5013364;28;20197;-83
2023/09/16 08:57:11;;;;;;;13.77;12.57;;;26.20;99.90;;;;;;5021990;28;20224;-83
2023/09/16 08:59:39;;;;;;;13.60;12.40;;;26.00;99.90;;;;;;5021077;28;20224;-82
2023/09/16 09:02:06;;;;;;;12.60;11.60;;;26.10;99.90;;;;;;5013755;28;20236;-82
2023/09/16 09:04:33;;;;;;;12.43;11.43;;;26.40;99.90;;;;;;5018358;28;20215;-81
2023/09/16 09:07:03;;;;;;;13.43;12.43;;;26.50;99.90;;;;;;5015512;28;20215;-83
2023/09/16 09:09:30;;;;;;;14.20;13.10;;;26.70;99.90;;;;;;5022076;28;20924;-82
2023/09/16 09:11:59;;;;;;;13.82;12.73;;;26.70;99.90;;;;;;5016029;28;20443;-83
2023/09/16 09:14:27;;;;;;;12.53;11.53;;;26.60;99.90;;;;;;5025153;28;20192;-81
2023/09/16 09:17:00;;;;;;;12.50;11.50;;;26.40;99.90;;;;;;5020046;28;20200;-82
2023/09/16 09:19:27;;;;;;;13.37;12.27;;;26.60;99.90;;;;;;5007700;28;20230;-83
2023/09/16 09:21:56;;;;;;;12.63;11.50;;;26.70;99.90;;;;;;5011438;28;20189;-82
2023/09/16 09:24:24;;;;;;;8.80;8.00;;;26.60;99.90;;;;;;5013698;28;20240;-81
2023/09/16 09:26:51;;;;;;;12.57;11.57;;;26.40;99.90;;;;;;5021539;28;20208;-82
2023/09/16 09:29:18;;;;;;;11.87;10.97;;;26.50;99.90;;;;;;5006491;28;20641;-82
2023/09/16 09:31:46;;;;;;;10.83;10.13;;;26.70;99.90;;;;;;5019559;28;20204;-79
2023/09/16 09:34:17;;;;;;;11.83;10.83;;;27.00;99.90;;;;;;5012749;28;20618;-82
2023/09/16 09:36:46;;;;;;;12.17;11.27;;;27.00;99.90;;;;;;5012832;28;20741;-83
2023/09/16 09:39:13;;;;;;;10.63;9.83;;;26.80;99.90;;;;;;5015065;28;20216;-82
2023/09/16 09:41:46;;;;;;;12.43;11.53;;;27.00;99.90;;;;;;5014337;28;20250;-81
2023/09/16 09:44:14;;;;;;;11.63;10.77;;;27.10;99.90;;;;;;5013053;28;20280;-81
2023/09/16 09:46:41;;;;;;;11.80;10.90;;;27.20;99.90;;;;;;5011279;28;20869;-82
2023/09/16 09:49:10;;;;;;;12.43;11.43;;;27.30;99.90;;;;;;5011584;28;20224;-82
2023/09/16 09:51:38;;;;;;;10.93;10.23;;;27.30;99.90;;;;;;5013194;28;20526;-82
2023/09/16 09:54:06;;;;;;;10.97;10.17;;;27.10;99.90;;;;;;5008942;28;20233;-82
2023/09/16 09:56:33;;;;;;;11.32;10.43;;;27.20;99.90;;;;;;5013247;28;20442;-82
2023/09/16 09:59:02;;;;;;;10.77;9.97;;;27.20;99.90;;;;;;5010201;28;20737;-83
2023/09/16 10:01:32;;;;;;;11.70;10.70;;;27.20;99.90;;;;;;5012788;28;20243;-82
2023/09/16 10:04:02;;;;;;;10.80;10.00;;;27.20;99.90;;;;;;5010281;28;21655;-81
2023/09/16 10:06:29;;;;;;;10.97;10.07;;;27.20;99.90;;;;;;5005509;28;20255;-82
2023/09/16 10:08:56;;;;;;;10.70;9.80;;;27.20;99.90;;;;;;5007578;28;20247;-82
2023/09/16 10:11:23;;;;;;;10.13;9.43;;;27.10;99.90;;;;;;5036524;28;20208;-82
2023/09/16 10:13:50;;;;;;;9.53;8.83;;;27.00;99.90;;;;;;5011231;28;20258;-82
2023/09/16 10:16:20;;;;;;;6.07;5.57;;;27.00;99.90;;;;;;5014781;28;20667;-82
2023/09/16 10:18:47;;;;;;;8.30;7.60;;;26.90;99.90;;;;;;5007680;28;20250;-82
2023/09/16 10:21:17;;;;;;;9.43;8.73;;;26.90;99.90;;;;;;5008835;28;20301;-82
2023/09/16 10:23:44;;;;;;;8.53;7.90;;;26.60;99.90;;;;;;5010948;28;20204;-82
2023/09/16 10:26:12;;;;;;;8.03;7.43;;;26.70;99.90;;;;;;5009270;28;20220;-82
2023/09/16 10:28:46;;;;;;;8.07;7.37;;;26.70;99.90;;;;;;5012117;28;20728;-82
2023/09/16 10:31:13;;;;;;;6.30;5.80;;;26.90;99.90;;;;;;5013237;28;20231;-82
2023/09/16 10:33:43;;;;;;;6.50;5.90;;;27.00;99.90;;;;;;5011921;28;20196;-81
2023/09/16 10:36:13;;;;;;;7.72;7.22;;;26.90;99.90;;;;;;5009838;28;20527;-82
2023/09/16 10:38:40;;;;;;;9.43;8.73;;;26.80;99.90;;;;;;4998948;28;20255;-81
2023/09/16 10:41:15;;;;;;;8.73;8.13;;;26.60;99.90;;;;;;5011452;28;20205;-83
2023/09/16 10:43:45;;;;;;;8.57;7.97;;;26.40;99.90;;;;;;5010424;28;20447;-82
2023/09/16 10:46:13;;;;;;;8.80;8.20;;;26.30;99.90;;;;;;5010396;28;20447;-82
2023/09/16 10:48:43;;;;;;;6.00;5.60;;;26.30;99.90;;;;;;5004587;28;20224;-82
2023/09/16 10:51:18;;;;;;;10.40;9.70;;;26.40;99.90;;;;;;5007147;28;20597;-82
2023/09/16 10:53:51;;;;;;;5.07;4.57;;;26.50;99.90;;;;;;5005357;28;20719;-82
2023/09/16 10:56:28;;;;;;;4.67;4.27;;;26.40;99.90;;;;;;5011794;28;20211;-82
2023/09/16 10:59:03;;;;;;;5.50;5.00;;;26.30;99.90;;;;;;5006876;28;20722;-82
2023/09/16 11:01:36;;;;;;;5.47;4.97;;;26.20;99.90;;;;;;5007278;28;20197;-82
2023/09/16 11:04:09;;;;;;;9.27;8.53;;;26.10;99.90;;;;;;5013013;28;20200;-81
2023/09/16 11:06:36;;;;;;;9.60;8.80;;;26.00;99.90;;;;;;5011962;28;20295;-82
2023/09/16 11:09:03;;;;;;;9.30;8.63;;;26.00;99.90;;;;;;5012713;28;20274;-81
2023/09/16 11:11:30;;;;;;;6.77;6.23;;;26.00;99.90;;;;;;5012240;28;20201;-81
2023/09/16 11:13:57;;;;;;;4.90;4.40;;;26.00;99.90;;;;;;5011666;28;20663;-82
2023/09/16 11:16:24;;;;;;;4.83;4.43;;;26.00;99.90;;;;;;5012030;28;20271;-82
2023/09/16 11:18:52;;;;;;;4.20;3.90;;;26.00;99.90;;;;;;5012673;28;20223;-83
2023/09/16 11:21:21;;;;;;;4.73;4.33;;;26.20;99.90;;;;;;5012920;28;20205;-82
2023/09/16 11:23:49;;;;;;;4.13;3.80;;;26.00;99.90;;;;;;5012675;28;20207;-82
2023/09/16 11:26:21;;;;;;;4.10;3.70;;;26.00;99.90;;;;;;5012159;28;20208;-81
2023/09/16 11:28:49;;;;;;;4.33;3.93;;;26.00;99.90;;;;;;5014422;28;20710;-82
2023/09/16 11:31:16;;;;;;;4.37;4.07;;;26.00;99.90;;;;;;5020407;28;20745;-82
2023/09/16 11:33:43;;;;;;;4.60;4.20;;;26.00;99.90;;;;;;5020764;28;20215;-82
2023/09/16 11:36:12;;;;;;;8.37;7.77;;;26.00;99.90;;;;;;5037604;28;20207;-84
2023/09/16 11:38:54;;;;;;;7.97;7.37;;;26.00;99.90;;;;;;5010601;28;20258;-82
2023/09/16 11:41:21;;;;;;;4.50;4.10;;;25.90;99.90;;;;;;5014872;28;20212;-82
2023/09/16 11:43:48;;;;;;;3.93;3.63;;;26.00;99.90;;;;;;5016224;28;20220;-82
2023/09/16 11:46:14;;;;;;;7.37;6.80;;;25.90;99.90;;;;;;5011911;28;20235;-82
2023/09/16 11:48:53;;;;;;;3.70;3.40;;;25.90;99.90;;;;;;5006630;28;20216;-82
2023/09/16 11:51:21;;;;;;;3.77;3.47;;;26.00;99.90;;;;;;5007572;28;20211;-81
2023/09/16 11:53:53;;;;;;;4.07;3.70;;;26.00;99.90;;;;;;5012029;28;20200;-78
2023/09/16 11:56:26;;;;;;;4.27;3.87;;;26.10;99.90;;;;;;5015535;28;20266;-81
2023/09/16 11:58:54;;;;;;;4.37;3.97;;;26.00;99.90;;;;;;5012527;28;20224;-83
2023/09/16 12:01:23;;;;;;;7.50;6.90;;;25.90;99.90;;;;;;5018153;28;20254;-84
2023/09/16 12:03:50;;;;;;;7.53;7.03;;;25.90;99.90;;;;;;5019187;28;20196;-83
2023/09/16 12:06:20;;;;;;;7.97;7.37;;;26.00;99.90;;;;;;5014966;28;20247;-81
2023/09/16 12:08:49;;;;;;;8.00;7.40;;;26.00;99.90;;;;;;5014463;28;20224;-83
2023/09/16 12:11:16;;;;;;;8.40;7.70;;;26.00;99.90;;;;;;5020672;28;20204;-84
2023/09/16 12:13:43;;;;;;;7.97;7.37;;;26.00;99.90;;;;;;5004557;28;20224;-81
2023/09/16 12:16:10;;;;;;;7.60;7.00;;;26.00;99.90;;;;;;5028576;28;20644;-81
2023/09/16 12:18:37;;;;;;;7.60;7.00;;;26.00;99.90;;;;;;5008207;28;20216;-82
2023/09/16 12:21:06;;;;;;;7.97;7.37;;;25.90;99.90;;;;;;5015474;28;20270;-83
2023/09/16 12:23:33;;;;;;;8.63;7.83;;;25.90;99.90;;;;;;5030431;28;20581;-83
2023/09/16 12:26:01;;;;;;;8.33;7.63;;;25.90;99.90;;;;;;5012083;28;20302;-78
2023/09/16 12:28:28;;;;;;;7.77;7.17;;;25.90;99.90;;;;;;5010050;28;20263;-77
2023/09/16 12:30:56;;;;;;;7.97;7.37;;;26.00;99.90;;;;;;5013362;28;20262;-78
2023/09/16 12:33:23;;;;;;;8.60;8.00;;;26.00;99.90;;;;;;5011288;28;20201;-78
2023/09/16 12:35:52;;;;;;;4.43;4.07;;;26.00;99.90;;;;;;5010268;28;20202;-77